sensor_id;sensor_type;location;lat;lon;timestamp;pressure;altitude;pressure_sealevel;temperature
56286;BMP180;42191;47.562;9.686;2022-08-24T00:01:14;97034.00;;;20.50
56286;BMP180;42191;47.562;9.686;2022-08-24T00:03:42;97029.00;;;20.40
56286;BMP180;42191;47.562;9.686;2022-08-24T00:06:11;97039.00;;;20.30
56286;BMP180;42191;47.562;9.686;2022-08-24T00:08:38;97036.00;;;20.30
56286;BMP180;42191;47.562;9.686;2022-08-24T00:11:05;97039.00;;;20.30
56286;BMP180;42191;47.562;9.686;2022-08-24T00:13:33;97043.00;;;20.20
56286;BMP180;42191;47.562;9.686;2022-08-24T00:15:59;97040.00;;;20.20
56286;BMP180;42191;47.562;9.686;2022-08-24T00:18:25;97036.00;;;20.20
56286;BMP180;42191;47.562;9.686;2022-08-24T00:20:52;97037.00;;;20.20
56286;BMP180;42191;47.562;9.686;2022-08-24T00:23:18;97026.00;;;20.10
56286;BMP180;42191;47.562;9.686;2022-08-24T00:25:44;97034.00;;;20.10
56286;BMP180;42191;47.562;9.686;2022-08-24T00:28:10;97031.00;;;20.00
56286;BMP180;42191;47.562;9.686;2022-08-24T00:30:36;97038.00;;;20.00
56286;BMP180;42191;47.562;9.686;2022-08-24T00:33:03;97038.00;;;20.00
56286;BMP180;42191;47.562;9.686;2022-08-24T00:35:30;97038.00;;;19.90
56286;BMP180;42191;47.562;9.686;2022-08-24T00:37:57;97039.00;;;19.90
56286;BMP180;42191;47.562;9.686;2022-08-24T00:40:31;97029.00;;;19.80
56286;BMP180;42191;47.562;9.686;2022-08-24T00:43:02;97033.00;;;19.80
56286;BMP180;42191;47.562;9.686;2022-08-24T00:45:36;97036.00;;;19.70
56286;BMP180;42191;47.562;9.686;2022-08-24T00:48:11;97041.00;;;19.70
56286;BMP180;42191;47.562;9.686;2022-08-24T00:50:56;97041.00;;;19.60
56286;BMP180;42191;47.562;9.686;2022-08-24T00:53:55;97038.00;;;19.60
56286;BMP180;42191;47.562;9.686;2022-08-24T00:56:27;97043.00;;;19.50
56286;BMP180;42191;47.562;9.686;2022-08-24T00:59:04;97042.00;;;19.50
56286;BMP180;42191;47.562;9.686;2022-08-24T01:01:33;97042.00;;;19.50
56286;BMP180;42191;47.562;9.686;2022-08-24T01:04:01;97047.00;;;19.40
56286;BMP180;42191;47.562;9.686;2022-08-24T01:06:28;97042.00;;;19.40
56286;BMP180;42191;47.562;9.686;2022-08-24T01:08:54;97046.00;;;19.30
56286;BMP180;42191;47.562;9.686;2022-08-24T01:11:23;97042.00;;;19.30
56286;BMP180;42191;47.562;9.686;2022-08-24T01:13:52;97047.00;;;19.30
56286;BMP180;42191;47.562;9.686;2022-08-24T01:16:20;97042.00;;;19.30
56286;BMP180;42191;47.562;9.686;2022-08-24T01:19:15;97035.00;;;19.20
56286;BMP180;42191;47.562;9.686;2022-08-24T01:22:20;97034.00;;;19.20
56286;BMP180;42191;47.562;9.686;2022-08-24T01:24:48;97041.00;;;19.10
56286;BMP180;42191;47.562;9.686;2022-08-24T01:27:15;97026.00;;;19.10
56286;BMP180;42191;47.562;9.686;2022-08-24T01:29:42;97039.00;;;19.10
56286;BMP180;42191;47.562;9.686;2022-08-24T01:32:09;97033.00;;;19.00
56286;BMP180;42191;47.562;9.686;2022-08-24T01:34:36;97031.00;;;19.00
56286;BMP180;42191;47.562;9.686;2022-08-24T01:37:03;97024.00;;;19.00
56286;BMP180;42191;47.562;9.686;2022-08-24T01:39:33;97028.00;;;18.90
56286;BMP180;42191;47.562;9.686;2022-08-24T01:42:01;97026.00;;;18.90
56286;BMP180;42191;47.562;9.686;2022-08-24T01:44:29;97016.00;;;18.80
56286;BMP180;42191;47.562;9.686;2022-08-24T01:46:57;97024.00;;;18.80
56286;BMP180;42191;47.562;9.686;2022-08-24T01:49:30;97024.00;;;18.80
56286;BMP180;42191;47.562;9.686;2022-08-24T01:51:57;97021.00;;;18.80
56286;BMP180;42191;47.562;9.686;2022-08-24T01:54:24;97027.00;;;18.70
56286;BMP180;42191;47.562;9.686;2022-08-24T01:56:51;97024.00;;;18.70
56286;BMP180;42191;47.562;9.686;2022-08-24T01:59:18;97019.00;;;18.70
56286;BMP180;42191;47.562;9.686;2022-08-24T02:01:52;97022.00;;;18.70
56286;BMP180;42191;47.562;9.686;2022-08-24T02:04:20;97006.00;;;18.70
56286;BMP180;42191;47.562;9.686;2022-08-24T02:06:46;97014.00;;;18.70
56286;BMP180;42191;47.562;9.686;2022-08-24T02:09:12;97010.00;;;18.70
56286;BMP180;42191;47.562;9.686;2022-08-24T02:11:39;97012.00;;;18.60
56286;BMP180;42191;47.562;9.686;2022-08-24T02:14:06;97011.00;;;18.60
56286;BMP180;42191;47.562;9.686;2022-08-24T02:16:32;97004.00;;;18.60
56286;BMP180;42191;47.562;9.686;2022-08-24T02:18:58;97013.00;;;18.50
56286;BMP180;42191;47.562;9.686;2022-08-24T02:21:25;97011.00;;;18.50
56286;BMP180;42191;47.562;9.686;2022-08-24T02:23:51;97014.00;;;18.50
56286;BMP180;42191;47.562;9.686;2022-08-24T02:26:18;97014.00;;;18.40
56286;BMP180;42191;47.562;9.686;2022-08-24T02:28:44;97016.00;;;18.40
56286;BMP180;42191;47.562;9.686;2022-08-24T02:31:12;97019.00;;;18.40
56286;BMP180;42191;47.562;9.686;2022-08-24T02:33:39;97015.00;;;18.40
56286;BMP180;42191;47.562;9.686;2022-08-24T02:36:07;97023.00;;;18.30
56286;BMP180;42191;47.562;9.686;2022-08-24T02:38:34;97011.00;;;18.30
56286;BMP180;42191;47.562;9.686;2022-08-24T02:41:00;97009.00;;;18.30
56286;BMP180;42191;47.562;9.686;2022-08-24T02:43:26;97014.00;;;18.30
56286;BMP180;42191;47.562;9.686;2022-08-24T02:45:52;97010.00;;;18.30
56286;BMP180;42191;47.562;9.686;2022-08-24T02:48:18;97017.00;;;18.20
56286;BMP180;42191;47.562;9.686;2022-08-24T02:50:47;97019.00;;;18.20
56286;BMP180;42191;47.562;9.686;2022-08-24T02:53:15;97014.00;;;18.20
56286;BMP180;42191;47.562;9.686;2022-08-24T02:55:43;97007.00;;;18.20
56286;BMP180;42191;47.562;9.686;2022-08-24T02:58:11;97013.00;;;18.10
56286;BMP180;42191;47.562;9.686;2022-08-24T03:00:39;97009.00;;;18.10
56286;BMP180;42191;47.562;9.686;2022-08-24T03:03:07;97007.00;;;18.10
56286;BMP180;42191;47.562;9.686;2022-08-24T03:05:34;97001.00;;;18.00
56286;BMP180;42191;47.562;9.686;2022-08-24T03:08:01;97009.00;;;18.00
56286;BMP180;42191;47.562;9.686;2022-08-24T03:10:27;97016.00;;;18.00
56286;BMP180;42191;47.562;9.686;2022-08-24T03:12:54;97008.00;;;18.00
56286;BMP180;42191;47.562;9.686;2022-08-24T03:15:20;97007.00;;;17.90
56286;BMP180;42191;47.562;9.686;2022-08-24T03:17:48;97001.00;;;17.90
56286;BMP180;42191;47.562;9.686;2022-08-24T03:20:17;97010.00;;;17.90
56286;BMP180;42191;47.562;9.686;2022-08-24T03:22:44;97006.00;;;17.80
56286;BMP180;42191;47.562;9.686;2022-08-24T03:25:16;97010.00;;;17.80
56286;BMP180;42191;47.562;9.686;2022-08-24T03:27:42;97001.00;;;17.70
56286;BMP180;42191;47.562;9.686;2022-08-24T03:30:10;96991.00;;;17.70
56286;BMP180;42191;47.562;9.686;2022-08-24T03:32:38;96998.00;;;17.70
56286;BMP180;42191;47.562;9.686;2022-08-24T03:35:05;97005.00;;;17.70
56286;BMP180;42191;47.562;9.686;2022-08-24T03:37:31;97006.00;;;17.60
56286;BMP180;42191;47.562;9.686;2022-08-24T03:39:58;97002.00;;;17.60
56286;BMP180;42191;47.562;9.686;2022-08-24T03:42:24;97007.00;;;17.60
56286;BMP180;42191;47.562;9.686;2022-08-24T03:44:50;97010.00;;;17.60
56286;BMP180;42191;47.562;9.686;2022-08-24T03:47:16;97005.00;;;17.50
56286;BMP180;42191;47.562;9.686;2022-08-24T03:49:43;96988.00;;;17.50
56286;BMP180;42191;47.562;9.686;2022-08-24T03:52:09;96997.00;;;17.40
56286;BMP180;42191;47.562;9.686;2022-08-24T03:54:36;96999.00;;;17.40
56286;BMP180;42191;47.562;9.686;2022-08-24T03:57:02;97008.00;;;17.40
56286;BMP180;42191;47.562;9.686;2022-08-24T03:59:28;97008.00;;;17.30
56286;BMP180;42191;47.562;9.686;2022-08-24T04:01:54;97003.00;;;17.30
56286;BMP180;42191;47.562;9.686;2022-08-24T04:04:22;96996.00;;;17.20
56286;BMP180;42191;47.562;9.686;2022-08-24T04:06:48;96998.00;;;17.20
56286;BMP180;42191;47.562;9.686;2022-08-24T04:09:15;96999.00;;;17.20
56286;BMP180;42191;47.562;9.686;2022-08-24T04:11:41;96993.00;;;17.10
56286;BMP180;42191;47.562;9.686;2022-08-24T04:14:11;97002.00;;;17.10
56286;BMP180;42191;47.562;9.686;2022-08-24T04:16:38;96991.00;;;17.10
56286;BMP180;42191;47.562;9.686;2022-08-24T04:19:04;97010.00;;;17.10
56286;BMP180;42191;47.562;9.686;2022-08-24T04:21:33;97006.00;;;17.10
56286;BMP180;42191;47.562;9.686;2022-08-24T04:24:00;97008.00;;;17.10
56286;BMP180;42191;47.562;9.686;2022-08-24T04:26:28;97012.00;;;17.10
56286;BMP180;42191;47.562;9.686;2022-08-24T04:28:56;97016.00;;;17.10
56286;BMP180;42191;47.562;9.686;2022-08-24T04:31:22;97012.00;;;17.10
56286;BMP180;42191;47.562;9.686;2022-08-24T04:33:49;97018.00;;;17.10
56286;BMP180;42191;47.562;9.686;2022-08-24T04:36:17;97008.00;;;17.00
56286;BMP180;42191;47.562;9.686;2022-08-24T04:38:44;97010.00;;;17.00
56286;BMP180;42191;47.562;9.686;2022-08-24T04:41:12;97014.00;;;17.00
56286;BMP180;42191;47.562;9.686;2022-08-24T04:43:40;97011.00;;;17.00
56286;BMP180;42191;47.562;9.686;2022-08-24T04:46:12;97018.00;;;17.00
56286;BMP180;42191;47.562;9.686;2022-08-24T04:48:41;97019.00;;;17.00
56286;BMP180;42191;47.562;9.686;2022-08-24T04:51:08;97018.00;;;17.00
56286;BMP180;42191;47.562;9.686;2022-08-24T04:53:35;97019.00;;;17.00
56286;BMP180;42191;47.562;9.686;2022-08-24T04:56:02;97020.00;;;17.00
56286;BMP180;42191;47.562;9.686;2022-08-24T04:58:29;97025.00;;;17.00
56286;BMP180;42191;47.562;9.686;2022-08-24T05:00:55;97028.00;;;17.00
56286;BMP180;42191;47.562;9.686;2022-08-24T05:03:22;97031.00;;;17.10
56286;BMP180;42191;47.562;9.686;2022-08-24T05:05:50;97027.00;;;17.10
56286;BMP180;42191;47.562;9.686;2022-08-24T05:08:17;97030.00;;;17.20
56286;BMP180;42191;47.562;9.686;2022-08-24T05:10:46;97036.00;;;17.20
56286;BMP180;42191;47.562;9.686;2022-08-24T05:13:14;97030.00;;;17.20
56286;BMP180;42191;47.562;9.686;2022-08-24T05:15:42;97039.00;;;17.30
56286;BMP180;42191;47.562;9.686;2022-08-24T05:18:08;97038.00;;;17.40
56286;BMP180;42191;47.562;9.686;2022-08-24T05:20:34;97042.00;;;17.40
56286;BMP180;42191;47.562;9.686;2022-08-24T05:23:04;97032.00;;;17.50
56286;BMP180;42191;47.562;9.686;2022-08-24T05:25:30;97034.00;;;17.50
56286;BMP180;42191;47.562;9.686;2022-08-24T05:27:56;97036.00;;;17.50
56286;BMP180;42191;47.562;9.686;2022-08-24T05:30:23;97036.00;;;17.60
56286;BMP180;42191;47.562;9.686;2022-08-24T05:32:49;97040.00;;;17.60
56286;BMP180;42191;47.562;9.686;2022-08-24T05:35:15;97044.00;;;17.70
56286;BMP180;42191;47.562;9.686;2022-08-24T05:37:41;97038.00;;;17.70
56286;BMP180;42191;47.562;9.686;2022-08-24T05:40:10;97043.00;;;17.80
56286;BMP180;42191;47.562;9.686;2022-08-24T05:42:37;97044.00;;;17.80
56286;BMP180;42191;47.562;9.686;2022-08-24T05:45:04;97043.00;;;17.90
56286;BMP180;42191;47.562;9.686;2022-08-24T05:47:32;97043.00;;;17.90
56286;BMP180;42191;47.562;9.686;2022-08-24T05:50:00;97048.00;;;18.00
56286;BMP180;42191;47.562;9.686;2022-08-24T05:52:26;97043.00;;;18.00
56286;BMP180;42191;47.562;9.686;2022-08-24T05:54:56;97046.00;;;18.10
56286;BMP180;42191;47.562;9.686;2022-08-24T05:57:24;97046.00;;;18.10
56286;BMP180;42191;47.562;9.686;2022-08-24T05:59:51;97043.00;;;18.20
56286;BMP180;42191;47.562;9.686;2022-08-24T06:02:18;97044.00;;;18.20
56286;BMP180;42191;47.562;9.686;2022-08-24T06:04:45;97042.00;;;18.30
56286;BMP180;42191;47.562;9.686;2022-08-24T06:07:12;97045.00;;;18.40
56286;BMP180;42191;47.562;9.686;2022-08-24T06:09:39;97042.00;;;18.40
56286;BMP180;42191;47.562;9.686;2022-08-24T06:12:06;97042.00;;;18.50
56286;BMP180;42191;47.562;9.686;2022-08-24T06:14:32;97042.00;;;18.60
56286;BMP180;42191;47.562;9.686;2022-08-24T06:16:59;97042.00;;;18.70
56286;BMP180;42191;47.562;9.686;2022-08-24T06:19:26;97050.00;;;18.80
56286;BMP180;42191;47.562;9.686;2022-08-24T06:21:53;97043.00;;;18.80
56286;BMP180;42191;47.562;9.686;2022-08-24T06:24:21;97046.00;;;18.90
56286;BMP180;42191;47.562;9.686;2022-08-24T06:27:12;97042.00;;;19.00
56286;BMP180;42191;47.562;9.686;2022-08-24T06:30:08;97045.00;;;19.10
56286;BMP180;42191;47.562;9.686;2022-08-24T06:32:35;97046.00;;;19.20
56286;BMP180;42191;47.562;9.686;2022-08-24T06:35:02;97058.00;;;19.30
56286;BMP180;42191;47.562;9.686;2022-08-24T06:37:28;97053.00;;;19.40
56286;BMP180;42191;47.562;9.686;2022-08-24T06:39:55;97058.00;;;19.50
56286;BMP180;42191;47.562;9.686;2022-08-24T06:42:22;97050.00;;;19.60
56286;BMP180;42191;47.562;9.686;2022-08-24T06:44:51;97054.00;;;19.70
56286;BMP180;42191;47.562;9.686;2022-08-24T06:47:18;97060.00;;;19.80
56286;BMP180;42191;47.562;9.686;2022-08-24T06:49:44;97063.00;;;19.90
56286;BMP180;42191;47.562;9.686;2022-08-24T06:52:10;97070.00;;;20.00
56286;BMP180;42191;47.562;9.686;2022-08-24T06:54:37;97070.00;;;20.10
56286;BMP180;42191;47.562;9.686;2022-08-24T06:57:05;97066.00;;;20.20
56286;BMP180;42191;47.562;9.686;2022-08-24T06:59:31;97072.00;;;20.30
56286;BMP180;42191;47.562;9.686;2022-08-24T07:01:59;97069.00;;;20.40
56286;BMP180;42191;47.562;9.686;2022-08-24T07:04:26;97083.00;;;20.50
56286;BMP180;42191;47.562;9.686;2022-08-24T07:06:53;97078.00;;;20.60
56286;BMP180;42191;47.562;9.686;2022-08-24T07:09:20;97071.00;;;20.70
56286;BMP180;42191;47.562;9.686;2022-08-24T07:11:50;97073.00;;;20.80
56286;BMP180;42191;47.562;9.686;2022-08-24T07:14:16;97070.00;;;20.90
56286;BMP180;42191;47.562;9.686;2022-08-24T07:16:44;97079.00;;;21.00
56286;BMP180;42191;47.562;9.686;2022-08-24T07:19:10;97084.00;;;21.10
56286;BMP180;42191;47.562;9.686;2022-08-24T07:21:36;97082.00;;;21.20
56286;BMP180;42191;47.562;9.686;2022-08-24T07:24:02;97087.00;;;21.30
56286;BMP180;42191;47.562;9.686;2022-08-24T07:26:30;97083.00;;;21.40
56286;BMP180;42191;47.562;9.686;2022-08-24T07:29:00;97082.00;;;21.50
56286;BMP180;42191;47.562;9.686;2022-08-24T07:31:31;97074.00;;;21.60
56286;BMP180;42191;47.562;9.686;2022-08-24T07:33:57;97072.00;;;21.70
56286;BMP180;42191;47.562;9.686;2022-08-24T07:36:23;97077.00;;;21.80
56286;BMP180;42191;47.562;9.686;2022-08-24T07:38:50;97078.00;;;21.90
56286;BMP180;42191;47.562;9.686;2022-08-24T07:41:20;97082.00;;;21.90
56286;BMP180;42191;47.562;9.686;2022-08-24T07:43:47;97079.00;;;22.00
56286;BMP180;42191;47.562;9.686;2022-08-24T07:46:14;97077.00;;;22.10
56286;BMP180;42191;47.562;9.686;2022-08-24T07:48:40;97090.00;;;22.10
56286;BMP180;42191;47.562;9.686;2022-08-24T07:51:08;97095.00;;;22.20
56286;BMP180;42191;47.562;9.686;2022-08-24T07:53:35;97081.00;;;22.30
56286;BMP180;42191;47.562;9.686;2022-08-24T07:56:01;97079.00;;;22.40
56286;BMP180;42191;47.562;9.686;2022-08-24T07:58:28;97074.00;;;22.40
56286;BMP180;42191;47.562;9.686;2022-08-24T08:00:54;97076.00;;;22.50
56286;BMP180;42191;47.562;9.686;2022-08-24T08:03:20;97081.00;;;22.60
56286;BMP180;42191;47.562;9.686;2022-08-24T08:05:47;97083.00;;;22.70
56286;BMP180;42191;47.562;9.686;2022-08-24T08:08:14;97085.00;;;22.80
56286;BMP180;42191;47.562;9.686;2022-08-24T08:10:40;97085.00;;;22.80
56286;BMP180;42191;47.562;9.686;2022-08-24T08:13:07;97083.00;;;22.90
56286;BMP180;42191;47.562;9.686;2022-08-24T08:15:33;97084.00;;;23.00
56286;BMP180;42191;47.562;9.686;2022-08-24T08:17:59;97086.00;;;23.10
56286;BMP180;42191;47.562;9.686;2022-08-24T08:20:25;97091.00;;;23.20
56286;BMP180;42191;47.562;9.686;2022-08-24T08:22:51;97089.00;;;23.20
56286;BMP180;42191;47.562;9.686;2022-08-24T08:25:36;97094.00;;;23.30
56286;BMP180;42191;47.562;9.686;2022-08-24T08:28:04;97083.00;;;23.30
56286;BMP180;42191;47.562;9.686;2022-08-24T08:30:31;97092.00;;;23.40
56286;BMP180;42191;47.562;9.686;2022-08-24T08:32:57;97092.00;;;23.50
56286;BMP180;42191;47.562;9.686;2022-08-24T08:35:23;97097.00;;;23.50
56286;BMP180;42191;47.562;9.686;2022-08-24T08:37:51;97087.00;;;23.60
56286;BMP180;42191;47.562;9.686;2022-08-24T08:40:49;97093.00;;;23.60
56286;BMP180;42191;47.562;9.686;2022-08-24T08:43:39;97089.00;;;23.60
56286;BMP180;42191;47.562;9.686;2022-08-24T08:49:00;97091.00;;;23.80
56286;BMP180;42191;47.562;9.686;2022-08-24T08:54:45;97080.00;;;23.90
56286;BMP180;42191;47.562;9.686;2022-08-24T08:58:05;97080.00;;;24.00
56286;BMP180;42191;47.562;9.686;2022-08-24T09:00:21;97083.00;;;24.00
56286;BMP180;42191;47.562;9.686;2022-08-24T09:13:29;97071.00;;;24.30
56286;BMP180;42191;47.562;9.686;2022-08-24T09:18:44;97076.00;;;24.30
56286;BMP180;42191;47.562;9.686;2022-08-24T09:26:28;97078.00;;;24.50
56286;BMP180;42191;47.562;9.686;2022-08-24T09:34:56;97072.00;;;24.50
56286;BMP180;42191;47.562;9.686;2022-08-24T09:37:33;97057.00;;;24.50
56286;BMP180;42191;47.562;9.686;2022-08-24T09:40:59;97069.00;;;24.60
56286;BMP180;42191;47.562;9.686;2022-08-24T09:51:48;97053.00;;;24.70
56286;BMP180;42191;47.562;9.686;2022-08-24T09:57:06;97052.00;;;24.80
56286;BMP180;42191;47.562;9.686;2022-08-24T10:17:33;97041.00;;;25.10
56286;BMP180;42191;47.562;9.686;2022-08-24T10:23:15;97037.00;;;25.20
56286;BMP180;42191;47.562;9.686;2022-08-24T10:31:10;97026.00;;;25.50
56286;BMP180;42191;47.562;9.686;2022-08-24T10:39:21;97024.00;;;25.60
56286;BMP180;42191;47.562;9.686;2022-08-24T10:48:01;97013.00;;;25.80
56286;BMP180;42191;47.562;9.686;2022-08-24T10:50:37;97003.00;;;25.80
56286;BMP180;42191;47.562;9.686;2022-08-24T10:53:29;97000.00;;;25.80
56286;BMP180;42191;47.562;9.686;2022-08-24T11:01:27;97002.00;;;26.10
56286;BMP180;42191;47.562;9.686;2022-08-24T11:04:07;96991.00;;;26.10
56286;BMP180;42191;47.562;9.686;2022-08-24T11:07:02;96993.00;;;26.20
56286;BMP180;42191;47.562;9.686;2022-08-24T11:14:57;96991.00;;;26.40
56286;BMP180;42191;47.562;9.686;2022-08-24T11:17:26;96989.00;;;26.50
56286;BMP180;42191;47.562;9.686;2022-08-24T11:19:52;96991.00;;;26.50
56286;BMP180;42191;47.562;9.686;2022-08-24T11:22:35;96992.00;;;26.50
56286;BMP180;42191;47.562;9.686;2022-08-24T11:27:42;96992.00;;;26.70
56286;BMP180;42191;47.562;9.686;2022-08-24T11:30:25;96984.00;;;26.80
56286;BMP180;42191;47.562;9.686;2022-08-24T11:33:01;96979.00;;;27.00
56286;BMP180;42191;47.562;9.686;2022-08-24T11:38:07;96972.00;;;27.30
56286;BMP180;42191;47.562;9.686;2022-08-24T11:41:21;96978.00;;;27.40
56286;BMP180;42191;47.562;9.686;2022-08-24T11:54:55;96969.00;;;28.30
56286;BMP180;42191;47.562;9.686;2022-08-24T11:57:40;96968.00;;;28.50
56286;BMP180;42191;47.562;9.686;2022-08-24T12:00:19;96965.00;;;28.60
56286;BMP180;42191;47.562;9.686;2022-08-24T12:05:56;96952.00;;;28.90
56286;BMP180;42191;47.562;9.686;2022-08-24T12:08:37;96962.00;;;29.00
56286;BMP180;42191;47.562;9.686;2022-08-24T12:13:56;96962.00;;;29.30
56286;BMP180;42191;47.562;9.686;2022-08-24T12:16:43;96961.00;;;29.40
56286;BMP180;42191;47.562;9.686;2022-08-24T12:19:15;96972.00;;;29.60
56286;BMP180;42191;47.562;9.686;2022-08-24T12:21:45;96963.00;;;29.60
56286;BMP180;42191;47.562;9.686;2022-08-24T12:24:16;96956.00;;;29.70
56286;BMP180;42191;47.562;9.686;2022-08-24T12:26:52;96955.00;;;29.80
56286;BMP180;42191;47.562;9.686;2022-08-24T12:31:57;96951.00;;;30.00
56286;BMP180;42191;47.562;9.686;2022-08-24T12:37:21;96952.00;;;30.10
56286;BMP180;42191;47.562;9.686;2022-08-24T12:45:22;96955.00;;;30.30
56286;BMP180;42191;47.562;9.686;2022-08-24T12:56:24;96945.00;;;30.60
56286;BMP180;42191;47.562;9.686;2022-08-24T12:59:14;96950.00;;;30.70
56286;BMP180;42191;47.562;9.686;2022-08-24T13:02:01;96947.00;;;30.80
56286;BMP180;42191;47.562;9.686;2022-08-24T13:09:45;96936.00;;;31.00
56286;BMP180;42191;47.562;9.686;2022-08-24T13:28:43;96926.00;;;32.50
56286;BMP180;42191;47.562;9.686;2022-08-24T13:31:35;96926.00;;;33.10
56286;BMP180;42191;47.562;9.686;2022-08-24T13:39:59;96905.00;;;35.40
56286;BMP180;42191;47.562;9.686;2022-08-24T13:50:32;96913.00;;;38.40
56286;BMP180;42191;47.562;9.686;2022-08-24T13:55:49;96912.00;;;39.70
56286;BMP180;42191;47.562;9.686;2022-08-24T13:58:41;96916.00;;;40.20
56286;BMP180;42191;47.562;9.686;2022-08-24T14:01:36;96920.00;;;40.70
56286;BMP180;42191;47.562;9.686;2022-08-24T14:15:51;96908.00;;;41.70
56286;BMP180;42191;47.562;9.686;2022-08-24T14:44:03;96914.00;;;42.90
56286;BMP180;42191;47.562;9.686;2022-08-24T14:46:53;96922.00;;;42.90
56286;BMP180;42191;47.562;9.686;2022-08-24T14:49:41;96909.00;;;43.00
56286;BMP180;42191;47.562;9.686;2022-08-24T14:55:20;96913.00;;;43.60
56286;BMP180;42191;47.562;9.686;2022-08-24T15:04:08;96917.00;;;44.50
56286;BMP180;42191;47.562;9.686;2022-08-24T15:06:46;96920.00;;;44.70
56286;BMP180;42191;47.562;9.686;2022-08-24T15:09:32;96915.00;;;44.80
56286;BMP180;42191;47.562;9.686;2022-08-24T15:12:28;96914.00;;;44.90
56286;BMP180;42191;47.562;9.686;2022-08-24T15:15:11;96908.00;;;45.20
56286;BMP180;42191;47.562;9.686;2022-08-24T15:23:12;96911.00;;;45.60
56286;BMP180;42191;47.562;9.686;2022-08-24T15:28:31;96914.00;;;45.50
56286;BMP180;42191;47.562;9.686;2022-08-24T15:31:04;96910.00;;;45.50
56286;BMP180;42191;47.562;9.686;2022-08-24T15:33:32;96911.00;;;45.70
56286;BMP180;42191;47.562;9.686;2022-08-24T15:36:07;96916.00;;;45.80
56286;BMP180;42191;47.562;9.686;2022-08-24T15:38:36;96912.00;;;45.90
56286;BMP180;42191;47.562;9.686;2022-08-24T15:46:36;96912.00;;;45.50
56286;BMP180;42191;47.562;9.686;2022-08-24T15:49:21;96921.00;;;45.00
56286;BMP180;42191;47.562;9.686;2022-08-24T15:56:53;96922.00;;;43.20
56286;BMP180;42191;47.562;9.686;2022-08-24T15:59:43;96927.00;;;42.80
56286;BMP180;42191;47.562;9.686;2022-08-24T16:08:15;96920.00;;;42.40
56286;BMP180;42191;47.562;9.686;2022-08-24T16:10:56;96923.00;;;42.60
56286;BMP180;42191;47.562;9.686;2022-08-24T16:13:28;96923.00;;;42.80
56286;BMP180;42191;47.562;9.686;2022-08-24T16:16:07;96922.00;;;43.00
56286;BMP180;42191;47.562;9.686;2022-08-24T16:18:54;96925.00;;;43.20
56286;BMP180;42191;47.562;9.686;2022-08-24T16:21:29;96919.00;;;43.30
56286;BMP180;42191;47.562;9.686;2022-08-24T16:24:03;96925.00;;;43.30
56286;BMP180;42191;47.562;9.686;2022-08-24T16:26:52;96916.00;;;43.40
56286;BMP180;42191;47.562;9.686;2022-08-24T16:35:34;96924.00;;;43.50
56286;BMP180;42191;47.562;9.686;2022-08-24T16:37:35;96923.00;;;43.50
56286;BMP180;42191;47.562;9.686;2022-08-24T16:40:03;96923.00;;;43.40
56286;BMP180;42191;47.562;9.686;2022-08-24T16:42:30;96921.00;;;43.30
56286;BMP180;42191;47.562;9.686;2022-08-24T16:44:57;96927.00;;;43.20
56286;BMP180;42191;47.562;9.686;2022-08-24T16:47:25;96931.00;;;43.10
56286;BMP180;42191;47.562;9.686;2022-08-24T16:49:51;96929.00;;;43.00
56286;BMP180;42191;47.562;9.686;2022-08-24T16:52:18;96928.00;;;42.90
56286;BMP180;42191;47.562;9.686;2022-08-24T16:54:45;96929.00;;;42.90
56286;BMP180;42191;47.562;9.686;2022-08-24T16:57:15;96929.00;;;42.90
56286;BMP180;42191;47.562;9.686;2022-08-24T16:59:43;96937.00;;;42.70
56286;BMP180;42191;47.562;9.686;2022-08-24T17:02:11;96942.00;;;42.50
56286;BMP180;42191;47.562;9.686;2022-08-24T17:04:38;96939.00;;;42.20
56286;BMP180;42191;47.562;9.686;2022-08-24T17:07:05;96940.00;;;41.90
56286;BMP180;42191;47.562;9.686;2022-08-24T17:09:35;96941.00;;;41.50
56286;BMP180;42191;47.562;9.686;2022-08-24T17:12:01;96940.00;;;41.20
56286;BMP180;42191;47.562;9.686;2022-08-24T17:14:27;96953.00;;;40.80
56286;BMP180;42191;47.562;9.686;2022-08-24T17:16:54;96951.00;;;40.50
56286;BMP180;42191;47.562;9.686;2022-08-24T17:19:20;96952.00;;;40.00
56286;BMP180;42191;47.562;9.686;2022-08-24T17:21:47;96956.00;;;39.70
56286;BMP180;42191;47.562;9.686;2022-08-24T17:24:14;96959.00;;;39.30
56286;BMP180;42191;47.562;9.686;2022-08-24T17:26:42;96953.00;;;38.90
56286;BMP180;42191;47.562;9.686;2022-08-24T17:29:09;96960.00;;;38.50
56286;BMP180;42191;47.562;9.686;2022-08-24T17:31:37;96961.00;;;38.10
56286;BMP180;42191;47.562;9.686;2022-08-24T17:34:05;96966.00;;;37.70
56286;BMP180;42191;47.562;9.686;2022-08-24T17:36:33;96961.00;;;37.30
56286;BMP180;42191;47.562;9.686;2022-08-24T17:39:00;96966.00;;;37.00
56286;BMP180;42191;47.562;9.686;2022-08-24T17:41:26;96961.00;;;36.70
56286;BMP180;42191;47.562;9.686;2022-08-24T17:43:53;96967.00;;;36.40
56286;BMP180;42191;47.562;9.686;2022-08-24T17:46:20;96972.00;;;36.10
56286;BMP180;42191;47.562;9.686;2022-08-24T17:48:47;96976.00;;;35.70
56286;BMP180;42191;47.562;9.686;2022-08-24T17:51:13;96973.00;;;35.40
56286;BMP180;42191;47.562;9.686;2022-08-24T17:53:40;96971.00;;;35.10
56286;BMP180;42191;47.562;9.686;2022-08-24T17:56:07;96976.00;;;34.80
56286;BMP180;42191;47.562;9.686;2022-08-24T17:58:34;96969.00;;;34.60
56286;BMP180;42191;47.562;9.686;2022-08-24T18:01:20;96976.00;;;34.30
56286;BMP180;42191;47.562;9.686;2022-08-24T18:03:46;96971.00;;;34.00
56286;BMP180;42191;47.562;9.686;2022-08-24T18:06:12;96977.00;;;33.80
56286;BMP180;42191;47.562;9.686;2022-08-24T18:08:39;96972.00;;;33.60
56286;BMP180;42191;47.562;9.686;2022-08-24T18:11:05;96973.00;;;33.30
56286;BMP180;42191;47.562;9.686;2022-08-24T18:13:31;96973.00;;;33.10
56286;BMP180;42191;47.562;9.686;2022-08-24T18:15:57;96972.00;;;32.90
56286;BMP180;42191;47.562;9.686;2022-08-24T18:18:23;96971.00;;;32.70
56286;BMP180;42191;47.562;9.686;2022-08-24T18:20:49;96970.00;;;32.50
56286;BMP180;42191;47.562;9.686;2022-08-24T18:23:15;96969.00;;;32.30
56286;BMP180;42191;47.562;9.686;2022-08-24T18:25:47;96978.00;;;32.10
56286;BMP180;42191;47.562;9.686;2022-08-24T18:28:16;96984.00;;;31.90
56286;BMP180;42191;47.562;9.686;2022-08-24T18:30:42;96977.00;;;31.70
56286;BMP180;42191;47.562;9.686;2022-08-24T18:33:09;96976.00;;;31.50
56286;BMP180;42191;47.562;9.686;2022-08-24T18:35:36;96979.00;;;31.30